createdAt,value
2022-11-07T00:01:48.565Z,13.60
2022-11-07T00:04:16.053Z,14.03
2022-11-07T00:06:43.237Z,11.97
2022-11-07T00:09:10.498Z,13.40
2022-11-07T00:11:37.654Z,14.00
2022-11-07T00:14:04.921Z,11.63
2022-11-07T00:16:32.646Z,12.90
2022-11-07T00:18:59.892Z,13.03
2022-11-07T00:21:27.040Z,11.90
2022-11-07T00:23:54.292Z,13.43
2022-11-07T00:26:21.837Z,11.90
2022-11-07T00:28:49.192Z,14.07
2022-11-07T00:31:16.673Z,13.33
2022-11-07T00:33:43.860Z,15.43
2022-11-07T00:36:17.100Z,11.83
2022-11-07T00:38:44.557Z,15.87
2022-11-07T00:41:11.790Z,11.20
2022-11-07T00:43:38.990Z,11.27
2022-11-07T00:46:07.038Z,12.77
2022-11-07T00:48:34.376Z,14.23
2022-11-07T00:51:12.225Z,12.77
2022-11-07T00:53:39.923Z,10.47
2022-11-07T00:56:08.315Z,11.37
2022-11-07T00:58:35.624Z,10.80
2022-11-07T01:01:10.388Z,12.47
2022-11-07T01:03:56.538Z,11.07
2022-11-07T01:06:23.972Z,11.30
2022-11-07T01:08:51.757Z,11.70
2022-11-07T01:11:18.989Z,11.47
2022-11-07T01:13:46.153Z,13.53
2022-11-07T01:16:13.362Z,10.07
2022-11-07T01:18:40.555Z,10.07
2022-11-07T01:21:13.509Z,10.03
2022-11-07T01:23:43.434Z,10.57
2022-11-07T01:26:12.070Z,12.33
2022-11-07T01:28:39.446Z,9.53
2022-11-07T01:31:08.221Z,10.10
2022-11-07T01:33:35.403Z,10.83
2022-11-07T01:36:06.509Z,8.67
2022-11-07T01:38:33.735Z,10.80
2022-11-07T01:41:19.894Z,9.90
2022-11-07T01:43:49.478Z,13.53
2022-11-07T01:46:17.172Z,12.00
2022-11-07T01:48:47.728Z,9.97
2022-11-07T01:51:15.521Z,11.03
2022-11-07T01:53:42.980Z,12.77
2022-11-07T01:56:15.003Z,11.17
2022-11-07T01:58:42.982Z,10.90
2022-11-07T02:01:10.221Z,11.50
2022-11-07T02:03:37.581Z,10.33
2022-11-07T02:06:07.101Z,11.03
2022-11-07T02:08:34.870Z,9.70
2022-11-07T02:11:03.173Z,9.73
2022-11-07T02:13:32.037Z,11.73
2022-11-07T02:16:00.535Z,9.80
2022-11-07T02:18:28.579Z,11.80
2022-11-07T02:20:58.002Z,11.23
2022-11-07T02:23:27.906Z,9.80
2022-11-07T02:25:55.573Z,8.87
2022-11-07T02:28:24.321Z,10.80
2022-11-07T02:30:51.436Z,10.87
2022-11-07T02:33:23.007Z,10.00
2022-11-07T02:35:51.427Z,11.47
2022-11-07T02:38:23.214Z,8.97
2022-11-07T02:40:58.124Z,11.33
2022-11-07T02:43:27.607Z,14.30
2022-11-07T02:45:55.367Z,9.03
2022-11-07T02:48:22.499Z,10.63
2022-11-07T02:50:49.644Z,10.67
2022-11-07T02:53:17.097Z,11.30
2022-11-07T02:55:44.574Z,13.10
2022-11-07T02:58:11.833Z,11.73
2022-11-07T03:00:39.012Z,12.60
2022-11-07T03:03:06.382Z,12.27
2022-11-07T03:05:33.515Z,11.07
2022-11-07T03:08:00.590Z,11.60
2022-11-07T03:10:27.709Z,13.20
2022-11-07T03:12:54.798Z,10.30
2022-11-07T03:15:21.938Z,10.93
2022-11-07T03:17:49.047Z,9.73
2022-11-07T03:20:16.150Z,11.87
2022-11-07T03:22:43.377Z,9.97
2022-11-07T03:25:10.603Z,11.50
2022-11-07T03:27:37.755Z,9.73
2022-11-07T03:30:05.082Z,9.73
2022-11-07T03:32:34.802Z,12.10
2022-11-07T03:35:01.964Z,14.83
2022-11-07T03:37:29.066Z,9.20
2022-11-07T03:39:56.180Z,6.83
2022-11-07T03:42:23.309Z,7.93
2022-11-07T03:44:50.392Z,12.17
2022-11-07T03:47:17.521Z,10.13
2022-11-07T03:49:44.627Z,7.37
2022-11-07T03:52:11.733Z,8.50
2022-11-07T03:54:38.831Z,9.03
2022-11-07T03:57:05.929Z,6.10
2022-11-07T03:59:33.026Z,6.93
2022-11-07T04:02:00.540Z,6.17
2022-11-07T04:04:27.896Z,9.13
2022-11-07T04:06:55.023Z,6.90
2022-11-07T04:09:22.113Z,5.03
2022-11-07T04:12:07.733Z,5.67
2022-11-07T04:14:53.662Z,7.13
2022-11-07T04:17:21.062Z,6.50
2022-11-07T04:19:49.057Z,5.03
2022-11-07T04:22:16.244Z,6.10
2022-11-07T04:24:46.037Z,8.17
2022-11-07T04:27:33.416Z,7.30
2022-11-07T04:30:18.896Z,8.97
2022-11-07T04:32:50.700Z,9.33
2022-11-07T04:35:18.214Z,9.10
2022-11-07T04:37:45.569Z,7.87
2022-11-07T04:40:12.941Z,6.90
2022-11-07T04:42:40.338Z,10.80
2022-11-07T04:45:07.843Z,8.13
2022-11-07T04:47:40.008Z,7.27
2022-11-07T04:50:09.031Z,9.37
2022-11-07T04:52:36.152Z,9.70
2022-11-07T04:55:03.736Z,8.17
2022-11-07T04:57:30.831Z,5.63
2022-11-07T04:59:58.073Z,7.80
2022-11-07T05:02:25.508Z,6.60
2022-11-07T05:04:53.255Z,11.77
2022-11-07T05:07:20.589Z,8.03
2022-11-07T05:09:47.729Z,9.87
2022-11-07T05:12:14.902Z,6.97
2022-11-07T05:14:42.026Z,10.97
2022-11-07T05:17:11.066Z,11.00
2022-11-07T05:19:38.155Z,12.53
2022-11-07T05:22:23.930Z,9.00
2022-11-07T05:24:51.063Z,9.60
2022-11-07T05:27:19.178Z,10.40
2022-11-07T05:29:46.724Z,8.77
2022-11-07T05:32:14.075Z,9.67
2022-11-07T05:34:41.446Z,9.33
2022-11-07T05:37:09.520Z,9.17
2022-11-07T05:39:36.992Z,8.57
2022-11-07T05:42:04.461Z,10.27
2022-11-07T05:44:31.687Z,8.73
2022-11-07T05:46:58.936Z,9.67
2022-11-07T05:49:26.445Z,6.10
2022-11-07T05:51:53.806Z,8.97
2022-11-07T05:54:21.184Z,10.17
2022-11-07T05:56:48.376Z,11.30
2022-11-07T05:59:15.609Z,10.37
2022-11-07T06:01:44.050Z,9.17
2022-11-07T06:04:12.827Z,9.70
2022-11-07T06:06:39.922Z,8.77
2022-11-07T06:09:07.077Z,8.70
2022-11-07T06:11:34.205Z,10.33
2022-11-07T06:14:01.363Z,11.63
2022-11-07T06:16:28.741Z,10.23
2022-11-07T06:18:55.829Z,10.57
2022-11-07T06:21:22.933Z,15.37
2022-11-07T06:23:50.046Z,12.27
2022-11-07T06:26:17.311Z,13.63
2022-11-07T06:28:44.446Z,17.40
2022-11-07T06:31:11.835Z,15.70
2022-11-07T06:33:39.023Z,14.63
2022-11-07T06:36:07.630Z,16.33
2022-11-07T06:38:34.990Z,12.77
2022-11-07T06:41:15.283Z,15.57
2022-11-07T06:43:42.434Z,16.73
2022-11-07T06:46:10.985Z,16.10
2022-11-07T06:48:38.315Z,16.70
2022-11-07T06:51:06.201Z,20.93
2022-11-07T06:53:33.422Z,17.77
2022-11-07T06:56:01.599Z,18.20
2022-11-07T06:58:28.802Z,21.77
2022-11-07T07:00:59.101Z,22.23
2022-11-07T07:03:26.293Z,23.33
2022-11-07T07:05:53.377Z,22.87
2022-11-07T07:08:20.475Z,17.43
2022-11-07T07:10:47.729Z,21.53
2022-11-07T07:13:15.141Z,24.97
2022-11-07T07:15:51.011Z,18.47
2022-11-07T07:18:18.998Z,17.00
2022-11-07T07:20:46.473Z,20.63
2022-11-07T07:23:13.848Z,20.27
2022-11-07T07:25:41.103Z,17.03
2022-11-07T07:28:08.268Z,21.03
2022-11-07T07:30:35.435Z,21.90
2022-11-07T07:33:02.574Z,14.77
2022-11-07T07:35:29.744Z,17.83
2022-11-07T07:37:56.917Z,24.40
2022-11-07T07:40:24.091Z,21.47
2022-11-07T07:42:51.217Z,18.20
2022-11-07T07:45:18.455Z,16.90
2022-11-07T07:47:46.076Z,21.37
2022-11-07T07:50:13.447Z,17.93
2022-11-07T07:52:41.102Z,16.83
2022-11-07T07:55:10.020Z,21.43
2022-11-07T07:57:41.070Z,19.27
2022-11-07T08:00:08.593Z,16.23
2022-11-07T08:02:35.751Z,15.53
2022-11-07T08:05:02.994Z,18.97
2022-11-07T08:07:30.129Z,14.27
2022-11-07T08:09:59.384Z,14.17
2022-11-07T08:12:29.327Z,17.93
2022-11-07T08:14:56.424Z,14.00
2022-11-07T08:17:23.550Z,16.17
2022-11-07T08:19:50.680Z,11.90
2022-11-07T08:22:17.785Z,16.80
2022-11-07T08:24:44.931Z,17.17
2022-11-07T08:27:12.156Z,15.77
2022-11-07T08:29:39.270Z,19.43
2022-11-07T08:32:06.435Z,15.77
2022-11-07T08:34:33.547Z,15.27
2022-11-07T08:37:00.754Z,15.97
2022-11-07T08:39:27.860Z,13.87
2022-11-07T08:41:55.062Z,15.33
2022-11-07T08:44:22.192Z,15.17
2022-11-07T08:46:49.275Z,15.47
2022-11-07T08:49:16.399Z,14.20
2022-11-07T08:51:43.493Z,13.87
2022-11-07T08:54:12.133Z,16.20
2022-11-07T08:56:39.229Z,15.87
2022-11-07T08:59:06.458Z,16.57
2022-11-07T09:01:33.822Z,14.50
2022-11-07T09:04:01.137Z,11.73
2022-11-07T09:06:28.386Z,14.97
2022-11-07T09:08:55.485Z,15.50
2022-11-07T09:11:22.607Z,16.97
2022-11-07T09:13:49.857Z,12.60
2022-11-07T09:16:17.496Z,14.20
2022-11-07T09:18:45.215Z,15.63
2022-11-07T09:21:15.383Z,14.17
2022-11-07T09:23:44.995Z,14.07
2022-11-07T09:26:12.502Z,11.43
2022-11-07T09:28:39.623Z,12.40
2022-11-07T09:31:06.939Z,9.70
2022-11-07T09:33:34.066Z,14.43
2022-11-07T09:36:02.120Z,11.43
2022-11-07T09:38:29.341Z,11.77
2022-11-07T09:40:56.431Z,15.57
2022-11-07T09:43:29.772Z,14.03
2022-11-07T09:46:02.905Z,15.23
2022-11-07T09:48:34.776Z,13.20
2022-11-07T09:51:02.031Z,12.40
2022-11-07T09:53:37.685Z,13.03
2022-11-07T09:56:05.878Z,6.77
2022-11-07T09:58:38.743Z,11.03
2022-11-07T10:01:07.693Z,11.87
2022-11-07T10:03:35.715Z,11.67
2022-11-07T10:06:12.119Z,10.97
2022-11-07T10:08:48.882Z,10.30
2022-11-07T10:11:28.162Z,10.67
2022-11-07T10:13:55.267Z,11.33
2022-11-07T10:16:32.149Z,9.87
2022-11-07T10:19:20.290Z,10.57
2022-11-07T10:21:54.205Z,6.43
2022-11-07T10:24:27.345Z,9.57
2022-11-07T10:26:54.834Z,11.07
2022-11-07T10:29:24.775Z,13.37
2022-11-07T10:31:56.480Z,10.87
2022-11-07T10:34:43.056Z,13.60
2022-11-07T10:37:10.287Z,6.83
2022-11-07T10:39:37.441Z,9.43
2022-11-07T10:42:07.582Z,9.93
2022-11-07T10:44:35.247Z,7.27
2022-11-07T10:47:15.574Z,10.37
2022-11-07T10:49:42.818Z,9.57
2022-11-07T10:52:11.161Z,6.47
2022-11-07T10:54:40.207Z,10.17
2022-11-07T10:57:10.379Z,8.83
2022-11-07T10:59:42.088Z,12.73
2022-11-07T11:02:18.423Z,9.93
2022-11-07T11:04:50.969Z,9.63
2022-11-07T11:07:21.859Z,9.53
2022-11-07T11:09:55.715Z,11.57
2022-11-07T11:12:33.950Z,7.00
2022-11-07T11:15:11.594Z,10.07
2022-11-07T11:17:41.888Z,9.70
2022-11-07T11:20:24.602Z,5.90
2022-11-07T11:22:54.803Z,7.20
2022-11-07T11:25:23.793Z,6.77
2022-11-07T11:27:54.423Z,9.77
2022-11-07T11:30:22.191Z,8.63
2022-11-07T11:32:55.538Z,9.10
2022-11-07T11:35:28.875Z,10.93
2022-11-07T11:37:59.408Z,13.63
2022-11-07T11:40:26.598Z,10.33
2022-11-07T11:42:56.918Z,9.33
2022-11-07T11:45:31.615Z,9.17
2022-11-07T11:48:10.839Z,8.70
2022-11-07T11:50:46.541Z,10.13
2022-11-07T11:53:17.200Z,8.70
2022-11-07T11:55:52.183Z,10.63
2022-11-07T11:58:31.539Z,3.57
2022-11-07T12:01:04.818Z,8.93
2022-11-07T12:03:42.518Z,9.20
2022-11-07T12:06:16.546Z,6.03
2022-11-07T12:08:48.533Z,9.87
2022-11-07T12:11:18.974Z,8.03
2022-11-07T12:13:58.270Z,5.40
2022-11-07T12:16:57.064Z,9.60
2022-11-07T12:19:33.778Z,8.03
2022-11-07T12:22:07.783Z,9.10
2022-11-07T12:24:53.220Z,8.87
2022-11-07T12:27:35.986Z,11.17
2022-11-07T12:30:12.043Z,9.43
2022-11-07T12:32:57.830Z,7.73
2022-11-07T12:35:37.881Z,7.50
2022-11-07T12:38:14.301Z,9.70
2022-11-07T12:40:47.606Z,10.10
2022-11-07T12:43:15.428Z,10.77
2022-11-07T12:46:08.294Z,5.53
2022-11-07T12:48:54.148Z,8.07
2022-11-07T12:51:21.371Z,7.17
2022-11-07T12:53:48.469Z,8.30
2022-11-07T12:56:18.208Z,12.60
2022-11-07T12:58:46.842Z,8.70
2022-11-07T13:01:15.987Z,7.50
2022-11-07T13:04:01.860Z,10.37
2022-11-07T13:06:47.858Z,8.63
2022-11-07T13:09:44.371Z,12.33
2022-11-07T13:12:17.522Z,8.53
2022-11-07T13:14:47.344Z,11.23
2022-11-07T13:17:17.671Z,12.00
2022-11-07T13:19:45.902Z,10.90
2022-11-07T13:22:21.870Z,9.97
2022-11-07T13:25:17.097Z,10.37
2022-11-07T13:27:46.838Z,13.03
2022-11-07T13:30:13.939Z,12.40
2022-11-07T13:32:41.044Z,12.83
2022-11-07T13:35:09.822Z,13.37
2022-11-07T13:37:38.498Z,9.30
2022-11-07T13:40:12.231Z,13.23
2022-11-07T13:42:41.052Z,12.30
2022-11-07T13:45:40.351Z,12.10
2022-11-07T13:48:13.888Z,12.10
2022-11-07T13:50:42.826Z,11.50
2022-11-07T13:53:23.940Z,11.77
2022-11-07T13:56:14.043Z,16.20
2022-11-07T13:58:42.486Z,13.10
2022-11-07T14:01:10.989Z,8.90
2022-11-07T14:03:38.198Z,13.23
2022-11-07T14:06:06.070Z,11.70
2022-11-07T14:08:35.612Z,9.57
2022-11-07T14:11:02.877Z,9.67
2022-11-07T14:13:41.172Z,9.83
2022-11-07T14:16:18.574Z,10.23
2022-11-07T14:18:52.858Z,12.07
2022-11-07T14:21:22.048Z,10.93
2022-11-07T14:23:49.776Z,11.27
2022-11-07T14:26:19.113Z,15.17
2022-11-07T14:28:47.977Z,12.93
2022-11-07T14:31:20.505Z,15.97
2022-11-07T14:33:48.945Z,11.23
2022-11-07T14:36:16.159Z,9.87
2022-11-07T14:38:50.939Z,14.73
2022-11-07T14:41:18.681Z,12.60
2022-11-07T14:43:46.582Z,10.87
2022-11-07T14:46:19.032Z,13.50
2022-11-07T14:48:47.717Z,14.37
2022-11-07T14:51:16.070Z,12.23
2022-11-07T14:53:49.225Z,13.20
2022-11-07T14:56:21.073Z,11.37
2022-11-07T14:58:48.405Z,14.30
2022-11-07T15:01:24.134Z,12.73
2022-11-07T15:03:54.011Z,12.47
2022-11-07T15:06:26.230Z,13.73
2022-11-07T15:08:57.547Z,12.30
2022-11-07T15:11:32.525Z,13.60
2022-11-07T15:14:00.654Z,12.93
2022-11-07T15:16:32.087Z,16.47
2022-11-07T15:19:09.356Z,18.57
2022-11-07T15:21:38.351Z,15.97
2022-11-07T15:24:24.481Z,16.73
2022-11-07T15:27:01.851Z,12.97
2022-11-07T15:29:36.842Z,14.00
2022-11-07T15:32:14.290Z,14.07
2022-11-07T15:35:00.887Z,11.40
2022-11-07T15:37:29.090Z,16.37
2022-11-07T15:39:56.484Z,11.87
2022-11-07T15:42:23.674Z,14.73
2022-11-07T15:44:50.826Z,12.53
2022-11-07T15:47:21.754Z,13.50
2022-11-07T15:49:49.265Z,13.27
2022-11-07T15:52:16.449Z,11.87
2022-11-07T15:54:43.898Z,11.27
2022-11-07T15:57:12.261Z,11.30
2022-11-07T15:59:39.632Z,17.20
2022-11-07T16:02:12.107Z,13.10
2022-11-07T16:04:39.908Z,15.30
2022-11-07T16:07:09.943Z,12.70
2022-11-07T16:09:37.145Z,14.00
2022-11-07T16:12:04.420Z,11.03
2022-11-07T16:14:47.040Z,13.20
2022-11-07T16:17:18.599Z,11.00
2022-11-07T16:19:48.489Z,11.17
2022-11-07T16:22:16.263Z,15.57
2022-11-07T16:24:43.690Z,16.70
2022-11-07T16:27:16.565Z,12.37
2022-11-07T16:29:44.363Z,12.53
2022-11-07T16:32:17.649Z,13.43
2022-11-07T16:34:45.757Z,12.77
2022-11-07T16:37:12.979Z,13.93
2022-11-07T16:39:40.303Z,15.00
2022-11-07T16:42:10.867Z,14.53
2022-11-07T16:44:38.070Z,13.13
2022-11-07T16:47:05.347Z,14.77
2022-11-07T16:49:33.983Z,11.93
2022-11-07T16:52:01.862Z,15.07
2022-11-07T16:54:28.979Z,16.73
2022-11-07T16:56:56.607Z,14.57
2022-11-07T16:59:24.541Z,12.27
2022-11-07T17:01:52.162Z,16.40
2022-11-07T17:04:19.407Z,14.77
2022-11-07T17:06:47.633Z,15.20
2022-11-07T17:09:24.665Z,12.13
2022-11-07T17:11:51.793Z,13.97
2022-11-07T17:14:18.951Z,16.43
2022-11-07T17:16:47.956Z,17.07
2022-11-07T17:19:15.577Z,19.73
2022-11-07T17:21:46.389Z,17.93
2022-11-07T17:24:13.906Z,16.53
2022-11-07T17:26:41.340Z,17.80
2022-11-07T17:29:09.252Z,20.13
2022-11-07T17:31:36.374Z,16.90
2022-11-07T17:34:03.639Z,19.20
2022-11-07T17:36:37.220Z,21.53
2022-11-07T17:39:11.395Z,21.57
2022-11-07T17:41:40.223Z,21.10
2022-11-07T17:44:07.729Z,16.57
2022-11-07T17:46:35.548Z,17.30
2022-11-07T17:49:07.176Z,23.83
2022-11-07T17:51:39.509Z,22.53
2022-11-07T17:54:06.817Z,19.30
2022-11-07T17:56:34.571Z,14.70
2022-11-07T17:59:04.035Z,20.47
2022-11-07T18:01:32.671Z,20.67
2022-11-07T18:04:00.378Z,19.00
2022-11-07T18:06:27.895Z,20.30
2022-11-07T18:08:56.709Z,19.77
2022-11-07T18:11:25.665Z,18.40
2022-11-07T18:13:53.920Z,19.90
2022-11-07T18:16:25.600Z,17.77
2022-11-07T18:18:52.976Z,17.60
2022-11-07T18:21:20.343Z,17.07
2022-11-07T18:23:48.055Z,16.60
2022-11-07T18:26:25.100Z,23.50
2022-11-07T18:28:53.701Z,20.40
2022-11-07T18:31:21.799Z,23.70
2022-11-07T18:33:49.331Z,19.50
2022-11-07T18:36:17.942Z,16.40
2022-11-07T18:38:45.418Z,24.13
2022-11-07T18:41:16.920Z,19.83
2022-11-07T18:43:44.199Z,17.67
2022-11-07T18:46:16.620Z,22.30
2022-11-07T18:48:43.977Z,15.17
2022-11-07T18:51:12.270Z,20.07
2022-11-07T18:53:39.659Z,16.83
2022-11-07T18:56:08.005Z,17.13
2022-11-07T18:58:36.522Z,20.80
2022-11-07T19:01:08.527Z,14.00
2022-11-07T19:03:37.352Z,17.30
2022-11-07T19:06:08.825Z,19.80
2022-11-07T19:08:37.692Z,17.47
2022-11-07T19:11:07.251Z,15.37
2022-11-07T19:13:38.384Z,17.53
2022-11-07T19:16:06.520Z,17.87
2022-11-07T19:18:33.773Z,19.43
2022-11-07T19:21:03.872Z,18.23
2022-11-07T19:23:31.337Z,17.23
2022-11-07T19:25:58.613Z,19.60
2022-11-07T19:28:25.762Z,18.63
2022-11-07T19:30:52.880Z,17.37
2022-11-07T19:33:20.560Z,14.80
2022-11-07T19:35:48.104Z,16.30
2022-11-07T19:38:15.371Z,20.33
2022-11-07T19:41:03.065Z,19.57
2022-11-07T19:43:31.556Z,15.07
2022-11-07T19:46:06.332Z,15.83
2022-11-07T19:48:33.500Z,16.63
2022-11-07T19:51:05.391Z,17.40
2022-11-07T19:53:32.541Z,15.50
2022-11-07T19:56:07.366Z,22.03
2022-11-07T19:58:39.464Z,22.90
2022-11-07T20:01:13.809Z,18.00
2022-11-07T20:03:43.714Z,17.37
2022-11-07T20:06:11.887Z,19.80
2022-11-07T20:08:39.606Z,15.73
2022-11-07T20:11:07.003Z,19.60
2022-11-07T20:13:34.323Z,21.00
2022-11-07T20:16:01.788Z,18.47
2022-11-07T20:18:28.958Z,20.97
2022-11-07T20:21:03.566Z,17.37
2022-11-07T20:23:30.707Z,20.57
2022-11-07T20:25:57.980Z,17.47
2022-11-07T20:28:25.570Z,17.57
2022-11-07T20:30:56.097Z,18.17
2022-11-07T20:33:24.354Z,18.80
2022-11-07T20:35:58.571Z,21.60
2022-11-07T20:38:25.812Z,20.83
2022-11-07T20:40:53.047Z,16.67
2022-11-07T20:43:20.490Z,20.23
2022-11-07T20:45:47.984Z,22.47
2022-11-07T20:48:16.902Z,17.73
2022-11-07T20:50:44.444Z,14.13
2022-11-07T20:53:11.971Z,20.13
2022-11-07T20:55:43.144Z,19.07
2022-11-07T20:58:10.780Z,23.60
2022-11-07T21:00:38.878Z,22.10
2022-11-07T21:03:06.251Z,19.47
2022-11-07T21:05:33.586Z,18.63
2022-11-07T21:08:00.701Z,18.97
2022-11-07T21:10:28.023Z,16.87
2022-11-07T21:12:55.154Z,20.43
2022-11-07T21:15:22.293Z,20.67
2022-11-07T21:17:49.452Z,22.53
2022-11-07T21:20:16.657Z,21.33
2022-11-07T21:22:43.868Z,22.57
2022-11-07T21:25:11.085Z,17.57
2022-11-07T21:27:38.296Z,19.60
2022-11-07T21:30:07.005Z,22.73
2022-11-07T21:32:35.171Z,20.80
2022-11-07T21:35:02.476Z,21.70
2022-11-07T21:37:29.696Z,24.13
2022-11-07T21:39:59.382Z,18.27
2022-11-07T21:42:26.475Z,22.60
2022-11-07T21:44:53.654Z,22.23
2022-11-07T21:47:20.804Z,19.43
2022-11-07T21:49:51.007Z,21.57
2022-11-07T21:52:18.115Z,21.77
2022-11-07T21:54:45.629Z,21.53
2022-11-07T21:57:13.127Z,19.27
2022-11-07T21:59:40.320Z,19.60
2022-11-07T22:02:07.703Z,16.53
2022-11-07T22:04:36.038Z,23.20
2022-11-07T22:07:03.136Z,21.73
2022-11-07T22:09:30.256Z,25.27
2022-11-07T22:11:57.710Z,22.47
2022-11-07T22:14:24.834Z,18.83
2022-11-07T22:16:52.097Z,20.47
2022-11-07T22:19:19.875Z,18.83
2022-11-07T22:21:47.230Z,22.50
2022-11-07T22:24:14.361Z,22.70
2022-11-07T22:26:41.627Z,16.67
2022-11-07T22:29:08.888Z,19.67
2022-11-07T22:31:36.302Z,19.50
2022-11-07T22:34:03.467Z,17.60
2022-11-07T22:36:30.776Z,19.67
2022-11-07T22:38:58.444Z,20.30
2022-11-07T22:41:26.985Z,20.90
2022-11-07T22:43:54.746Z,16.47
2022-11-07T22:46:22.559Z,17.63
2022-11-07T22:48:50.100Z,18.93
2022-11-07T22:51:19.878Z,18.10
2022-11-07T22:53:47.076Z,18.97
2022-11-07T22:56:15.716Z,18.37
2022-11-07T22:58:43.389Z,17.93
2022-11-07T23:01:17.948Z,15.63
2022-11-07T23:03:45.460Z,17.50
2022-11-07T23:06:12.698Z,20.27
2022-11-07T23:08:39.848Z,22.13
2022-11-07T23:14:02.720Z,14.13
2022-11-07T23:16:37.597Z,19.73
2022-11-07T23:19:06.410Z,19.20
2022-11-07T23:21:33.581Z,14.77
2022-11-07T23:24:01.449Z,21.67
2022-11-07T23:26:36.026Z,20.83
2022-11-07T23:29:11.259Z,17.23
2022-11-07T23:31:41.991Z,21.13
2022-11-07T23:34:09.393Z,15.93
2022-11-07T23:36:36.632Z,17.90
2022-11-07T23:39:09.563Z,18.63
2022-11-07T23:41:36.689Z,13.33
2022-11-07T23:44:04.027Z,17.83
2022-11-07T23:46:50.201Z,18.63
2022-11-07T23:49:36.069Z,21.13
2022-11-07T23:52:03.687Z,18.07
2022-11-07T23:54:49.564Z,22.03
2022-11-07T23:57:16.717Z,24.50
